Terminal Aerodrome Forecast
Issued by NWS

Home | Current Version | Previous Version | Text Only | Print | Product List | Glossary On
Versions: 1 2 3 4 5 6 7 8 9 10 11 12 13 14 15 16 17 18 19 20 21 22 23 24 25 26 27
000
FTUS41 KALY 292000 AAA
TAFPSF
TAF AMD
KPSF 292021Z 2920/3018 16010G19KT P6SM SCT120 OVC250
     FM292300 16010KT P6SM BKN050 OVC080
     FM300400 17008KT 2SM -SN BR OVC015
     FM300600 19007KT 3/4SM -SN BR VV006
     FM301600 30010KT 3SM -SHSN OVC012=

USA.gov is the U.S. government's official web portal to all federal, state and local government web resources and services.